Terminal Aerodrome Forecast
Issued by NWS

Home | Current Version | Previous Version | Text Only | Print | Product List | Glossary On
Versions: 1 2 3 4 5 6 7 8 9 10 11 12 13 14 15 16
207
FTUS42 KMHX 301731
TAFPGV
TAF
KPGV 301731Z 3018/3118 11010KT P6SM OVC060
     FM310800 15010KT P6SM OVC050
     FM311100 15010KT P6SM OVC020
     FM311200 15010KT 5SM TSRA OVC010CB
     FM311600 18010KT P6SM VCTS OVC020CB
      AMD LTD TO CLD VIS AND WIND=

USA.gov is the U.S. government's official web portal to all federal, state and local government web resources and services.